Time;durP1;ratioP1;P1;durP2;ratioP2;P2;SDS_P1;SDS_P2;PMS_P1;PMS_P2;Temp;Humidity;BMP_temperature;BMP_pressure;BME280_temperature;BME280_humidity;BME280_pressure;Samples;Min_cycle;Max_cycle;Signal;HPM_P1;HPM_P2
2022/01/08 00:00:35;;;;;;;10.70;2.20;;;;;;;;;;5033036;28;21121;-59
2022/01/08 00:03:05;;;;;;;6.65;2.00;;;;;;;;;;5032487;28;20476;-59
2022/01/08 00:05:35;;;;;;;7.50;1.50;;;;;;;;;;5029215;28;20024;-59
2022/01/08 00:08:03;;;;;;;8.02;1.67;;;;;;;;;;5030955;28;20033;-59
2022/01/08 00:10:31;;;;;;;3.13;1.20;;;;;;;;;;5032199;28;20128;-59
2022/01/08 00:13:19;;;;;;;4.35;1.10;;;;;;;;;;5011755;28;20032;-59
2022/01/08 00:15:47;;;;;;;4.18;1.05;;;;;;;;;;5029544;28;20040;-59
2022/01/08 00:18:13;;;;;;;4.78;1.33;;;;;;;;;;5032212;28;20491;-59
2022/01/08 00:20:39;;;;;;;6.30;1.85;;;;;;;;;;4997056;28;20095;-59
2022/01/08 00:23:04;;;;;;;10.25;2.00;;;;;;;;;;5032348;28;20106;-59
2022/01/08 00:25:32;;;;;;;11.35;2.40;;;;;;;;;;4978389;28;20573;-59
2022/01/08 00:28:02;;;;;;;7.07;2.55;;;;;;;;;;5009826;28;20072;-59
2022/01/08 00:30:30;;;;;;;3.25;2.38;;;;;;;;;;5033580;28;20137;-59
2022/01/08 00:32:59;;;;;;;12.70;1.83;;;;;;;;;;5027366;28;20032;-59
2022/01/08 00:35:24;;;;;;;4.72;1.08;;;;;;;;;;5010484;28;20559;-59
2022/01/08 00:37:55;;;;;;;3.67;1.33;;;;;;;;;;5027423;28;20029;-59
2022/01/08 00:40:23;;;;;;;2.17;1.27;;;;;;;;;;5000091;28;20998;-59
2022/01/08 00:42:49;;;;;;;7.63;1.88;;;;;;;;;;5028952;28;20116;-59
2022/01/08 00:45:15;;;;;;;4.80;1.48;;;;;;;;;;5031505;28;20040;-59
2022/01/08 00:47:40;;;;;;;8.13;1.38;;;;;;;;;;5009590;28;20033;-59
2022/01/08 00:50:06;;;;;;;4.13;1.25;;;;;;;;;;5030674;28;20044;-58
2022/01/08 00:52:32;;;;;;;2.15;1.05;;;;;;;;;;5008883;28;20040;-59
2022/01/08 00:55:02;;;;;;;5.07;2.65;;;;;;;;;;5009209;28;20488;-58
2022/01/08 00:57:30;;;;;;;3.65;1.08;;;;;;;;;;5005530;28;20538;-58
2022/01/08 00:59:58;;;;;;;5.53;1.67;;;;;;;;;;5006925;28;20620;-58
2022/01/08 01:02:28;;;;;;;3.58;2.13;;;;;;;;;;5027586;28;20029;-58
2022/01/08 01:04:56;;;;;;;6.07;1.58;;;;;;;;;;4995172;28;20799;-58
2022/01/08 01:07:24;;;;;;;3.80;1.92;;;;;;;;;;4990204;28;20029;-59
2022/01/08 01:09:50;;;;;;;6.68;2.25;;;;;;;;;;5026826;28;20083;-59
2022/01/08 01:12:18;;;;;;;9.18;3.72;;;;;;;;;;5005066;28;20167;-59
2022/01/08 01:14:44;;;;;;;6.10;2.85;;;;;;;;;;5025489;28;20032;-59
2022/01/08 01:17:11;;;;;;;6.07;2.70;;;;;;;;;;5003635;28;20187;-59
2022/01/08 01:19:42;;;;;;;6.30;2.53;;;;;;;;;;5024497;28;20025;-59
2022/01/08 01:22:14;;;;;;;5.55;2.20;;;;;;;;;;5026184;28;20141;-59
2022/01/08 01:24:45;;;;;;;7.97;2.28;;;;;;;;;;5012835;28;20041;-59
2022/01/08 01:30:13;;;;;;;11.32;2.72;;;;;;;;;;5023396;28;20059;-59
2022/01/08 01:49:10;;;;;;;5.63;2.90;;;;;;;;;;5022082;28;20045;-60
2022/01/08 01:51:36;;;;;;;5.00;3.08;;;;;;;;;;5029205;28;20083;-59
2022/01/08 01:54:02;;;;;;;7.15;2.92;;;;;;;;;;5010260;28;20037;-58
2022/01/08 01:56:28;;;;;;;8.48;3.65;;;;;;;;;;5029678;28;20476;-58
2022/01/08 01:59:01;;;;;;;11.32;3.85;;;;;;;;;;5020731;28;20163;-58
2022/01/08 02:01:29;;;;;;;3.65;2.05;;;;;;;;;;5027308;28;20491;-58
2022/01/08 02:03:56;;;;;;;3.92;2.53;;;;;;;;;;5011339;28;20028;-58
2022/01/08 02:06:26;;;;;;;4.20;2.33;;;;;;;;;;5011525;28;20025;-58
2022/01/08 02:08:56;;;;;;;2.30;1.65;;;;;;;;;;5026500;28;20086;-58
2022/01/08 02:11:22;;;;;;;3.95;2.30;;;;;;;;;;5029712;28;20024;-59
2022/01/08 02:13:48;;;;;;;9.32;2.75;;;;;;;;;;5006231;28;20365;-58
2022/01/08 02:16:17;;;;;;;10.88;2.22;;;;;;;;;;5011093;28;20555;-58
2022/01/08 02:18:48;;;;;;;3.88;2.03;;;;;;;;;;5022031;28;20058;-58
2022/01/08 02:21:14;;;;;;;2.55;1.83;;;;;;;;;;4992360;28;20562;-58
2022/01/08 02:23:42;;;;;;;5.18;2.60;;;;;;;;;;5011157;28;20029;-58
2022/01/08 02:26:11;;;;;;;3.75;2.58;;;;;;;;;;5026222;28;20567;-58
2022/01/08 02:28:40;;;;;;;3.40;2.58;;;;;;;;;;4974905;28;20061;-58
2022/01/08 02:31:42;;;;;;;6.65;2.38;;;;;;;;;;4990989;28;20029;-58
2022/01/08 02:34:08;;;;;;;1.42;1.17;;;;;;;;;;5000927;28;20496;-58
2022/01/08 02:36:37;;;;;;;4.57;1.48;;;;;;;;;;4997407;28;20141;-59
2022/01/08 02:39:05;;;;;;;4.03;1.23;;;;;;;;;;4989540;28;20807;-57
2022/01/08 02:41:35;;;;;;;3.78;1.33;;;;;;;;;;4998643;28;20034;-58
2022/01/08 02:44:01;;;;;;;3.63;1.52;;;;;;;;;;4974102;28;20038;-57
2022/01/08 02:46:30;;;;;;;4.78;1.45;;;;;;;;;;4974465;28;20033;-58
2022/01/08 02:48:55;;;;;;;8.02;1.50;;;;;;;;;;4984578;28;20509;-58
2022/01/08 02:51:24;;;;;;;3.38;1.02;;;;;;;;;;4980925;28;20033;-58
2022/01/08 02:53:52;;;;;;;3.45;1.00;;;;;;;;;;5001052;28;20029;-58
2022/01/08 02:56:47;;;;;;;1.85;1.27;;;;;;;;;;4971040;28;20038;-58
2022/01/08 02:59:13;;;;;;;0.77;0.55;;;;;;;;;;4981289;28;20467;-59
2022/01/08 03:01:42;;;;;;;3.17;0.88;;;;;;;;;;4961391;28;20029;-57
2022/01/08 03:04:09;;;;;;;1.73;0.90;;;;;;;;;;4957265;28;20030;-57
2022/01/08 03:06:35;;;;;;;2.22;1.50;;;;;;;;;;4973104;28;20128;-58
2022/01/08 03:09:00;;;;;;;4.97;2.13;;;;;;;;;;4984784;28;21611;-57
2022/01/08 03:11:28;;;;;;;5.03;1.52;;;;;;;;;;4991043;28;20460;-58
2022/01/08 03:13:56;;;;;;;11.20;1.55;;;;;;;;;;4991593;28;20156;-58
2022/01/08 03:16:27;;;;;;;2.97;1.15;;;;;;;;;;4985637;28;20063;-58
2022/01/08 03:19:07;;;;;;;2.58;1.48;;;;;;;;;;4997669;28;20477;-58
2022/01/08 03:21:39;;;;;;;2.33;1.35;;;;;;;;;;4990818;28;20045;-58
2022/01/08 03:24:06;;;;;;;1.88;1.08;;;;;;;;;;4998033;28;20224;-59
2022/01/08 03:26:32;;;;;;;7.35;2.58;;;;;;;;;;5002697;28;20152;-58
2022/01/08 03:29:00;;;;;;;1.85;1.33;;;;;;;;;;5010172;28;20349;-58
2022/01/08 03:31:26;;;;;;;3.28;1.63;;;;;;;;;;5010640;28;20041;-57
2022/01/08 03:33:56;;;;;;;2.28;1.90;;;;;;;;;;5012462;28;20049;-58
2022/01/08 03:36:23;;;;;;;2.15;1.63;;;;;;;;;;4983566;28;20046;-59
2022/01/08 03:38:52;;;;;;;3.42;1.15;;;;;;;;;;5012588;28;20060;-57
2022/01/08 03:41:22;;;;;;;4.25;2.53;;;;;;;;;;5011558;28;20053;-57
2022/01/08 03:43:49;;;;;;;6.53;2.90;;;;;;;;;;4981121;28;20040;-57
2022/01/08 03:46:21;;;;;;;3.08;1.83;;;;;;;;;;5010521;28;20112;-57
2022/01/08 03:49:10;;;;;;;3.38;1.75;;;;;;;;;;5010554;28;20096;-58
2022/01/08 03:51:33;;;;;;;1.58;0.90;;;;;;;;;;5010447;28;20039;-57
2022/01/08 03:53:59;;;;;;;2.38;1.20;;;;;;;;;;5014149;28;20476;-58
2022/01/08 03:56:25;;;;;;;8.43;1.15;;;;;;;;;;5006513;28;20037;-58
2022/01/08 03:58:53;;;;;;;1.13;0.73;;;;;;;;;;4992288;28;21901;-58
2022/01/08 04:01:21;;;;;;;3.30;0.80;;;;;;;;;;5011761;28;20044;-58
2022/01/08 04:03:47;;;;;;;2.40;0.32;;;;;;;;;;4994262;28;20033;-58
2022/01/08 04:06:14;;;;;;;3.20;0.70;;;;;;;;;;4990964;28;20215;-57
2022/01/08 04:08:40;;;;;;;1.05;0.60;;;;;;;;;;5010844;28;20517;-58
2022/01/08 04:11:05;;;;;;;1.67;0.38;;;;;;;;;;4981274;28;20030;-59
2022/01/08 04:13:39;;;;;;;4.65;0.85;;;;;;;;;;5007145;28;20079;-58
2022/01/08 04:16:14;;;;;;;2.15;0.63;;;;;;;;;;5005926;28;20091;-58
2022/01/08 04:18:41;;;;;;;4.13;1.00;;;;;;;;;;5009509;28;20057;-57
2022/01/08 04:23:51;;;;;;;4.93;1.10;;;;;;;;;;5011301;28;20059;-58
2022/01/08 04:26:22;;;;;;;3.42;0.95;;;;;;;;;;5005050;28;20033;-57
2022/01/08 04:28:47;;;;;;;2.10;0.73;;;;;;;;;;4990966;28;20158;-57
2022/01/08 04:31:16;;;;;;;2.28;0.75;;;;;;;;;;5024780;28;20043;-57
2022/01/08 04:33:41;;;;;;;1.38;0.50;;;;;;;;;;5026188;28;20540;-57
2022/01/08 04:36:11;;;;;;;8.30;1.20;;;;;;;;;;5028893;28;20029;-57
2022/01/08 04:39:02;;;;;;;0.93;0.57;;;;;;;;;;5026689;28;20163;-57
2022/01/08 04:41:28;;;;;;;3.75;0.82;;;;;;;;;;5023430;28;20037;-59
2022/01/08 04:43:56;;;;;;;5.88;0.93;;;;;;;;;;5024174;28;20130;-59
2022/01/08 04:46:24;;;;;;;2.38;0.65;;;;;;;;;;5026585;28;20033;-58
2022/01/08 04:48:52;;;;;;;1.55;0.75;;;;;;;;;;5017184;28;20028;-58
2022/01/08 04:51:17;;;;;;;2.15;0.85;;;;;;;;;;5025775;28;21003;-57
2022/01/08 04:53:45;;;;;;;9.05;1.40;;;;;;;;;;5014542;28;20055;-55
2022/01/08 04:56:15;;;;;;;1.55;1.10;;;;;;;;;;5028202;28;20033;-56
2022/01/08 04:58:40;;;;;;;1.52;0.93;;;;;;;;;;5013631;28;20052;-57
2022/01/08 05:01:13;;;;;;;2.50;0.82;;;;;;;;;;5013823;28;20508;-56
2022/01/08 05:03:38;;;;;;;1.67;1.00;;;;;;;;;;5031644;28;20753;-57
2022/01/08 05:06:06;;;;;;;4.40;1.70;;;;;;;;;;5028779;28;20114;-57
2022/01/08 05:08:34;;;;;;;1.60;0.88;;;;;;;;;;4996553;28;20029;-57
2022/01/08 05:10:59;;;;;;;1.52;1.00;;;;;;;;;;5027963;28;20481;-57
2022/01/08 05:13:27;;;;;;;2.17;0.98;;;;;;;;;;5027759;28;20020;-57
2022/01/08 05:15:53;;;;;;;2.53;1.85;;;;;;;;;;5029313;28;20037;-57
2022/01/08 05:18:22;;;;;;;3.28;1.20;;;;;;;;;;5032310;28;20029;-57
2022/01/08 05:21:07;;;;;;;3.03;0.95;;;;;;;;;;5015534;28;20063;-58
2022/01/08 05:23:35;;;;;;;1.23;0.65;;;;;;;;;;5030564;28;20993;-58
2022/01/08 05:26:03;;;;;;;5.13;1.30;;;;;;;;;;5012303;28;20062;-58
2022/01/08 05:28:31;;;;;;;1.70;0.98;;;;;;;;;;5028204;28;20128;-58
2022/01/08 05:30:59;;;;;;;6.07;1.10;;;;;;;;;;5029498;28;20043;-58
2022/01/08 05:33:58;;;;;;;3.53;1.10;;;;;;;;;;5027922;28;20033;-58
2022/01/08 05:36:23;;;;;;;5.85;1.80;;;;;;;;;;5028766;28;20529;-58
2022/01/08 05:38:53;;;;;;;2.08;1.10;;;;;;;;;;5027659;28;20037;-57
2022/01/08 05:41:21;;;;;;;8.18;1.00;;;;;;;;;;5025622;28;20033;-58
2022/01/08 05:43:47;;;;;;;1.75;1.08;;;;;;;;;;5009891;28;20442;-57
2022/01/08 05:46:12;;;;;;;6.20;1.08;;;;;;;;;;5026548;28;20048;-58
2022/01/08 05:48:42;;;;;;;3.38;1.25;;;;;;;;;;5019602;28;20024;-58
2022/01/08 05:51:10;;;;;;;1.85;0.98;;;;;;;;;;5028848;28;20037;-58
2022/01/08 05:53:38;;;;;;;4.30;1.00;;;;;;;;;;5019901;28;20041;-58
2022/01/08 05:56:05;;;;;;;1.50;0.98;;;;;;;;;;5022736;28;20021;-58
2022/01/08 05:58:38;;;;;;;3.83;1.50;;;;;;;;;;5017829;28;20029;-58
2022/01/08 06:01:04;;;;;;;1.73;1.33;;;;;;;;;;5016383;28;20946;-58
2022/01/08 06:03:30;;;;;;;2.38;1.05;;;;;;;;;;5026901;28;20024;-59
2022/01/08 06:05:55;;;;;;;5.28;1.23;;;;;;;;;;5018199;28;20032;-58
2022/01/08 06:08:20;;;;;;;7.80;1.52;;;;;;;;;;5021552;28;20025;-58
2022/01/08 06:10:48;;;;;;;5.72;1.95;;;;;;;;;;5031779;28;20052;-57
2022/01/08 06:13:14;;;;;;;4.38;1.60;;;;;;;;;;5018123;28;20109;-57
2022/01/08 06:15:39;;;;;;;6.45;3.53;;;;;;;;;;5036676;28;20040;-57
2022/01/08 06:18:07;;;;;;;10.57;3.30;;;;;;;;;;5034320;28;20408;-58
2022/01/08 06:20:32;;;;;;;8.70;3.53;;;;;;;;;;5019411;28;20496;-57
2022/01/08 06:23:00;;;;;;;2.17;1.90;;;;;;;;;;5017128;28;20028;-59
2022/01/08 06:25:25;;;;;;;6.53;2.13;;;;;;;;;;5035092;28;21298;-57
2022/01/08 06:27:54;;;;;;;8.20;2.90;;;;;;;;;;4990475;28;20499;-57
2022/01/08 06:30:21;;;;;;;6.10;2.10;;;;;;;;;;5021477;28;20049;-57
2022/01/08 06:32:52;;;;;;;5.05;1.90;;;;;;;;;;5026419;28;20025;-57
2022/01/08 06:35:20;;;;;;;3.95;2.25;;;;;;;;;;5019972;28;20126;-59
2022/01/08 06:37:47;;;;;;;7.00;2.00;;;;;;;;;;5032563;28;20028;-57
2022/01/08 06:40:18;;;;;;;9.52;2.25;;;;;;;;;;5033424;28;20610;-57
2022/01/08 06:42:46;;;;;;;7.55;1.98;;;;;;;;;;5005718;28;21889;-59
2022/01/08 06:45:11;;;;;;;7.10;1.75;;;;;;;;;;5024333;28;20063;-57
2022/01/08 06:47:37;;;;;;;3.25;2.10;;;;;;;;;;5006069;28;20041;-57
2022/01/08 06:50:10;;;;;;;8.95;2.13;;;;;;;;;;5022235;28;20811;-58
2022/01/08 06:52:42;;;;;;;8.18;2.30;;;;;;;;;;5029369;28;20016;-58
2022/01/08 06:55:12;;;;;;;10.18;2.60;;;;;;;;;;5032856;28;20024;-58
2022/01/08 06:57:43;;;;;;;6.35;2.08;;;;;;;;;;5033855;28;20037;-58
2022/01/08 07:00:11;;;;;;;6.40;3.15;;;;;;;;;;5029407;28;20041;-58
2022/01/08 07:02:39;;;;;;;4.10;2.72;;;;;;;;;;5031413;28;20029;-58
2022/01/08 07:05:10;;;;;;;6.22;3.30;;;;;;;;;;5033420;28;20403;-58
2022/01/08 07:11:13;;;;;;;6.63;2.88;;;;;;;;;;5035381;28;20063;-59
2022/01/08 07:13:42;;;;;;;6.03;3.35;;;;;;;;;;5031324;28;21003;-58
2022/01/08 07:16:10;;;;;;;6.10;3.15;;;;;;;;;;5030537;28;20671;-59
2022/01/08 07:18:41;;;;;;;11.80;3.90;;;;;;;;;;5032553;28;20476;-59
2022/01/08 07:21:08;;;;;;;11.23;3.42;;;;;;;;;;5020948;28;20045;-59
2022/01/08 07:23:36;;;;;;;6.75;3.67;;;;;;;;;;5032383;28;20091;-59
2022/01/08 07:26:04;;;;;;;11.05;3.92;;;;;;;;;;5032934;28;21267;-59
2022/01/08 07:28:29;;;;;;;16.52;3.55;;;;;;;;;;5029916;28;20131;-59
2022/01/08 07:30:55;;;;;;;6.05;3.47;;;;;;;;;;5031709;28;20040;-59
2022/01/08 07:33:20;;;;;;;9.52;3.53;;;;;;;;;;5013004;28;20036;-59
2022/01/08 07:35:50;;;;;;;5.50;3.00;;;;;;;;;;5012133;28;20021;-59
2022/01/08 07:38:18;;;;;;;10.50;3.17;;;;;;;;;;5013393;28;20041;-59
2022/01/08 07:40:50;;;;;;;17.27;4.03;;;;;;;;;;5018027;28;20036;-59
2022/01/08 07:43:21;;;;;;;10.18;3.30;;;;;;;;;;5030892;28;20198;-59
2022/01/08 07:45:51;;;;;;;11.00;4.22;;;;;;;;;;5030988;28;20052;-59
2022/01/08 07:48:18;;;;;;;10.43;5.07;;;;;;;;;;5013102;28;20032;-60
2022/01/08 07:50:47;;;;;;;12.93;4.22;;;;;;;;;;5014227;28;20033;-59
2022/01/08 07:53:12;;;;;;;11.88;4.70;;;;;;;;;;5011052;28;20032;-58
2022/01/08 07:55:37;;;;;;;9.35;4.43;;;;;;;;;;5024249;28;20704;-59
2022/01/08 07:58:03;;;;;;;16.42;6.75;;;;;;;;;;5029372;28;20367;-59
2022/01/08 08:00:28;;;;;;;11.43;5.18;;;;;;;;;;5032530;28;20041;-59
2022/01/08 08:02:53;;;;;;;9.70;4.00;;;;;;;;;;5033233;28;20032;-60
2022/01/08 08:05:22;;;;;;;13.65;3.75;;;;;;;;;;5013425;28;20028;-60
2022/01/08 08:11:23;;;;;;;13.95;4.47;;;;;;;;;;5032341;28;20136;-59
2022/01/08 08:13:53;;;;;;;10.80;3.80;;;;;;;;;;5026369;28;20480;-60
2022/01/08 08:16:21;;;;;;;10.00;3.38;;;;;;;;;;5013053;28;20096;-59
2022/01/08 08:18:47;;;;;;;8.75;3.53;;;;;;;;;;5029540;28;20036;-59
2022/01/08 08:21:17;;;;;;;9.40;3.10;;;;;;;;;;5010408;28;20041;-58
2022/01/08 08:23:47;;;;;;;7.45;2.53;;;;;;;;;;5031941;28;20151;-58
2022/01/08 08:26:12;;;;;;;8.18;2.47;;;;;;;;;;5030947;28;20138;-60
2022/01/08 08:28:37;;;;;;;12.85;2.72;;;;;;;;;;5032868;28;20591;-60
2022/01/08 08:31:03;;;;;;;13.25;2.95;;;;;;;;;;5028422;28;20033;-60
2022/01/08 08:33:29;;;;;;;9.65;3.15;;;;;;;;;;5031414;28;21332;-58
2022/01/08 08:35:59;;;;;;;9.38;2.60;;;;;;;;;;5027721;28;20051;-59
2022/01/08 08:38:25;;;;;;;5.82;1.85;;;;;;;;;;5026554;28;20032;-59
2022/01/08 08:40:53;;;;;;;9.60;2.38;;;;;;;;;;5029301;28;20079;-59
2022/01/08 08:43:21;;;;;;;5.63;2.45;;;;;;;;;;5028274;28;21910;-59
2022/01/08 08:45:47;;;;;;;2.75;1.92;;;;;;;;;;5029827;28;20021;-59
2022/01/08 08:48:18;;;;;;;4.88;2.00;;;;;;;;;;5031052;28;21842;-59
2022/01/08 08:50:44;;;;;;;5.07;2.47;;;;;;;;;;5025963;28;20029;-59
2022/01/08 08:53:12;;;;;;;4.80;2.35;;;;;;;;;;5028043;28;20037;-59
2022/01/08 08:55:37;;;;;;;4.57;2.70;;;;;;;;;;5011311;28;20567;-59
2022/01/08 09:01:40;;;;;;;3.53;1.60;;;;;;;;;;5030096;28;20035;-59
2022/01/08 09:04:06;;;;;;;7.32;3.72;;;;;;;;;;5029522;28;20028;-59
2022/01/08 09:06:32;;;;;;;6.05;2.80;;;;;;;;;;5014906;28;20025;-58
2022/01/08 09:09:00;;;;;;;11.35;2.80;;;;;;;;;;5027383;28;20060;-58
2022/01/08 09:11:28;;;;;;;13.10;4.43;;;;;;;;;;5018333;28;20037;-59
2022/01/08 09:13:56;;;;;;;11.18;2.92;;;;;;;;;;5015039;28;20095;-59
2022/01/08 09:16:24;;;;;;;10.90;2.60;;;;;;;;;;5028568;28;20610;-58
2022/01/08 09:18:51;;;;;;;11.98;2.63;;;;;;;;;;5013552;28;20024;-58
2022/01/08 09:24:56;;;;;;;7.45;2.15;;;;;;;;;;5015353;28;23029;-58
2022/01/08 09:27:23;;;;;;;7.07;2.58;;;;;;;;;;5025858;28;20033;-58
2022/01/08 09:29:51;;;;;;;8.82;2.55;;;;;;;;;;5029000;28;20055;-59
2022/01/08 09:32:17;;;;;;;9.02;2.33;;;;;;;;;;5027641;28;20033;-59
2022/01/08 09:34:43;;;;;;;4.50;2.35;;;;;;;;;;5028386;28;20051;-58
2022/01/08 09:37:11;;;;;;;5.55;2.28;;;;;;;;;;5009696;28;20580;-58
2022/01/08 09:39:41;;;;;;;7.35;1.77;;;;;;;;;;5027640;28;20028;-59
2022/01/08 09:42:10;;;;;;;7.35;2.00;;;;;;;;;;4998725;28;20035;-59
2022/01/08 09:44:42;;;;;;;4.32;1.90;;;;;;;;;;5032731;28;21678;-58
2022/01/08 09:47:07;;;;;;;7.55;1.90;;;;;;;;;;5033427;28;20136;-59
2022/01/08 09:49:38;;;;;;;8.45;2.13;;;;;;;;;;5029768;28;20033;-58
2022/01/08 09:52:40;;;;;;;7.38;2.00;;;;;;;;;;5048300;28;20033;-58
2022/01/08 09:55:08;;;;;;;9.98;1.73;;;;;;;;;;5029909;28;20060;-58
2022/01/08 09:57:36;;;;;;;6.07;1.63;;;;;;;;;;5032064;28;20075;-58
2022/01/08 10:00:08;;;;;;;5.15;1.80;;;;;;;;;;5039377;28;20422;-57
2022/01/08 10:02:36;;;;;;;16.80;2.25;;;;;;;;;;5036310;28;20041;-58
2022/01/08 10:05:23;;;;;;;5.38;1.77;;;;;;;;;;5035690;28;20029;-58
2022/01/08 10:07:59;;;;;;;9.10;1.98;;;;;;;;;;5031647;28;20616;-58
2022/01/08 10:10:27;;;;;;;7.50;2.53;;;;;;;;;;5030122;28;20047;-58
2022/01/08 10:13:00;;;;;;;10.88;2.47;;;;;;;;;;5031453;28;20073;-57
2022/01/08 10:18:33;;;;;;;8.07;1.67;;;;;;;;;;5032737;28;20168;-58
2022/01/08 10:21:02;;;;;;;7.38;2.38;;;;;;;;;;5030170;28;20025;-57
2022/01/08 10:23:29;;;;;;;7.57;2.08;;;;;;;;;;5027842;28;20133;-58
2022/01/08 10:26:01;;;;;;;8.55;2.10;;;;;;;;;;5031292;28;20030;-58
2022/01/08 10:28:41;;;;;;;6.30;1.67;;;;;;;;;;5028663;28;20117;-59
2022/01/08 10:31:27;;;;;;;7.85;1.75;;;;;;;;;;5031533;28;20656;-58
2022/01/08 10:34:01;;;;;;;11.30;2.15;;;;;;;;;;5033582;28;21004;-58
2022/01/08 10:36:33;;;;;;;6.18;1.70;;;;;;;;;;5031876;28;20032;-58
2022/01/08 10:39:01;;;;;;;7.68;1.83;;;;;;;;;;5031020;28;20029;-58
2022/01/08 10:41:28;;;;;;;5.63;2.13;;;;;;;;;;5029868;28;20036;-58
2022/01/08 10:44:08;;;;;;;5.45;1.80;;;;;;;;;;5028791;28;20033;-58
2022/01/08 10:46:37;;;;;;;12.15;2.22;;;;;;;;;;5032762;28;20052;-58
2022/01/08 10:52:42;;;;;;;9.65;2.10;;;;;;;;;;5031283;28;20123;-57
2022/01/08 10:55:10;;;;;;;5.75;2.00;;;;;;;;;;5048507;28;20036;-57
2022/01/08 10:57:37;;;;;;;9.60;1.90;;;;;;;;;;5029568;28;20800;-57
2022/01/08 11:00:07;;;;;;;6.47;2.10;;;;;;;;;;5047135;28;20071;-58
2022/01/08 11:02:35;;;;;;;10.05;2.33;;;;;;;;;;5031463;28;20159;-58
2022/01/08 11:05:07;;;;;;;9.60;2.65;;;;;;;;;;5029103;28;20024;-58
2022/01/08 11:07:33;;;;;;;5.60;2.42;;;;;;;;;;5029409;28;20060;-58
2022/01/08 11:10:02;;;;;;;4.63;2.13;;;;;;;;;;5030812;28;20033;-58
2022/01/08 11:12:36;;;;;;;7.30;2.40;;;;;;;;;;5016069;28;20039;-58
2022/01/08 11:17:48;;;;;;;7.63;3.03;;;;;;;;;;5028710;28;20660;-58
2022/01/08 11:20:32;;;;;;;14.27;2.65;;;;;;;;;;5028598;28;20041;-58
2022/01/08 11:23:03;;;;;;;10.75;2.80;;;;;;;;;;5026222;28;20040;-59
2022/01/08 11:25:35;;;;;;;5.43;2.37;;;;;;;;;;5025627;28;20693;-58
2022/01/08 11:28:01;;;;;;;10.13;2.55;;;;;;;;;;5026764;28;20283;-58
2022/01/08 11:30:34;;;;;;;7.32;2.42;;;;;;;;;;5024544;28;21045;-58
2022/01/08 11:33:08;;;;;;;12.38;2.70;;;;;;;;;;5030394;28;20156;-59
2022/01/08 11:35:35;;;;;;;7.37;2.90;;;;;;;;;;5031998;28;20079;-60
2022/01/08 11:38:07;;;;;;;9.02;2.38;;;;;;;;;;5031753;28;20291;-59
2022/01/08 11:40:39;;;;;;;6.00;2.75;;;;;;;;;;5031299;28;20144;-61
2022/01/08 11:43:08;;;;;;;13.57;3.58;;;;;;;;;;5028152;28;20041;-60
2022/01/08 11:45:37;;;;;;;7.13;2.58;;;;;;;;;;5027053;28;20021;-60
2022/01/08 11:48:09;;;;;;;5.50;3.00;;;;;;;;;;5028957;28;20051;-60
2022/01/08 11:50:34;;;;;;;8.38;3.20;;;;;;;;;;5027644;28;20033;-60
2022/01/08 11:53:21;;;;;;;11.13;2.80;;;;;;;;;;5026612;28;20669;-60
2022/01/08 11:56:18;;;;;;;8.02;2.88;;;;;;;;;;5025716;28;20567;-60
2022/01/08 12:02:32;;;;;;;6.47;3.05;;;;;;;;;;5028716;28;20134;-60
2022/01/08 12:05:00;;;;;;;9.82;3.17;;;;;;;;;;5030234;28;20036;-59
2022/01/08 12:07:36;;;;;;;9.23;3.47;;;;;;;;;;5030082;28;20794;-60
2022/01/08 12:10:16;;;;;;;9.07;3.45;;;;;;;;;;5028763;28;21126;-59
2022/01/08 12:12:42;;;;;;;13.65;3.25;;;;;;;;;;5025349;28;20036;-59
2022/01/08 12:18:54;;;;;;;7.25;3.90;;;;;;;;;;5025195;28;20024;-59
2022/01/08 12:21:29;;;;;;;10.50;4.30;;;;;;;;;;5029986;28;20045;-60
2022/01/08 12:23:55;;;;;;;12.95;3.65;;;;;;;;;;5030769;28;20025;-60
2022/01/08 12:26:25;;;;;;;12.85;4.45;;;;;;;;;;5029582;28;20113;-59
2022/01/08 12:28:59;;;;;;;7.13;3.63;;;;;;;;;;5027077;28;20033;-59
2022/01/08 12:31:28;;;;;;;6.95;3.38;;;;;;;;;;5025761;28;20039;-59
2022/01/08 12:37:43;;;;;;;10.20;4.10;;;;;;;;;;5028985;28;20082;-59
2022/01/08 12:40:12;;;;;;;9.15;4.60;;;;;;;;;;5029669;28;20103;-59
2022/01/08 12:42:42;;;;;;;17.58;4.97;;;;;;;;;;5029202;28;20037;-59
2022/01/08 12:45:18;;;;;;;8.75;4.68;;;;;;;;;;5028610;28;20638;-59
2022/01/08 12:47:49;;;;;;;10.07;4.85;;;;;;;;;;5031172;28;20032;-59
2022/01/08 12:50:21;;;;;;;10.75;5.68;;;;;;;;;;5024599;28;20051;-59
2022/01/08 12:55:53;;;;;;;14.15;6.03;;;;;;;;;;5027705;28;20952;-60
2022/01/08 13:01:55;;;;;;;19.85;7.03;;;;;;;;;;5026798;28;20036;-60
2022/01/08 13:04:22;;;;;;;16.88;7.28;;;;;;;;;;5025875;28;20115;-59
2022/01/08 13:06:52;;;;;;;15.95;7.97;;;;;;;;;;5028936;28;20037;-59
2022/01/08 13:09:18;;;;;;;19.52;7.88;;;;;;;;;;5028256;28;20036;-59
2022/01/08 13:11:44;;;;;;;13.65;6.90;;;;;;;;;;5012356;28;20031;-61
2022/01/08 13:14:16;;;;;;;17.63;7.53;;;;;;;;;;5028947;28;20032;-60
2022/01/08 13:16:44;;;;;;;20.33;8.15;;;;;;;;;;5028591;28;20059;-60
2022/01/08 13:19:11;;;;;;;16.42;8.57;;;;;;;;;;5024801;28;20033;-59
2022/01/08 13:21:55;;;;;;;27.60;9.77;;;;;;;;;;5011059;28;22025;-59
2022/01/08 13:24:37;;;;;;;18.25;9.32;;;;;;;;;;5013575;28;20029;-60
2022/01/08 13:27:02;;;;;;;19.73;8.43;;;;;;;;;;5024666;28;20067;-60
2022/01/08 13:29:29;;;;;;;19.70;9.65;;;;;;;;;;5028358;28;20686;-59
2022/01/08 13:32:08;;;;;;;18.30;10.60;;;;;;;;;;5023362;28;20680;-59
2022/01/08 13:34:37;;;;;;;21.25;8.85;;;;;;;;;;5024296;28;20083;-59
2022/01/08 13:37:05;;;;;;;18.38;10.02;;;;;;;;;;5024953;28;20036;-59
2022/01/08 13:39:39;;;;;;;18.45;9.15;;;;;;;;;;5028939;28;20056;-60
2022/01/08 13:42:10;;;;;;;18.65;8.55;;;;;;;;;;5029695;28;20389;-60
2022/01/08 13:44:35;;;;;;;21.30;10.23;;;;;;;;;;5025715;28;20029;-61
2022/01/08 13:47:06;;;;;;;26.23;10.80;;;;;;;;;;5022749;28;20064;-61
2022/01/08 13:49:34;;;;;;;17.45;9.60;;;;;;;;;;5025174;28;20609;-63
2022/01/08 13:55:13;;;;;;;21.90;9.05;;;;;;;;;;5024213;28;20040;-61
2022/01/08 13:57:45;;;;;;;19.95;10.25;;;;;;;;;;5028780;28;20128;-60
2022/01/08 14:00:21;;;;;;;22.40;9.40;;;;;;;;;;5022917;28;20847;-62
2022/01/08 14:02:52;;;;;;;21.33;9.68;;;;;;;;;;5028986;28;20033;-62
2022/01/08 14:05:25;;;;;;;19.13;9.98;;;;;;;;;;5022682;28;20021;-61
2022/01/08 14:07:53;;;;;;;19.98;9.75;;;;;;;;;;5023312;28;20113;-61
2022/01/08 14:10:19;;;;;;;15.55;8.93;;;;;;;;;;5024668;28;20024;-61
2022/01/08 14:13:26;;;;;;;16.50;9.25;;;;;;;;;;5040995;28;20044;-59
2022/01/08 14:15:58;;;;;;;20.45;9.82;;;;;;;;;;4978345;28;20041;-59
2022/01/08 14:18:27;;;;;;;25.35;10.73;;;;;;;;;;4978250;28;20050;-60
2022/01/08 14:20:55;;;;;;;18.42;8.50;;;;;;;;;;5002984;28;20080;-59
2022/01/08 14:23:28;;;;;;;19.65;9.88;;;;;;;;;;5024522;28;20079;-60
2022/01/08 14:25:58;;;;;;;20.98;9.55;;;;;;;;;;5025555;28;20025;-60
2022/01/08 14:28:24;;;;;;;24.50;9.57;;;;;;;;;;5030146;28;20044;-60
2022/01/08 14:30:53;;;;;;;26.60;8.82;;;;;;;;;;5030490;28;20053;-60
2022/01/08 14:33:19;;;;;;;20.33;9.40;;;;;;;;;;5018657;28;20048;-59
2022/01/08 14:35:45;;;;;;;25.88;10.55;;;;;;;;;;5034555;28;20037;-59
2022/01/08 14:41:54;;;;;;;15.65;9.25;;;;;;;;;;5027028;28;20572;-58
2022/01/08 14:44:24;;;;;;;23.85;9.13;;;;;;;;;;5043184;28;20037;-60
2022/01/08 14:50:28;;;;;;;17.13;8.65;;;;;;;;;;5030582;28;20063;-60
2022/01/08 14:53:00;;;;;;;18.38;8.02;;;;;;;;;;5019684;28;20033;-59
2022/01/08 14:55:43;;;;;;;19.83;8.23;;;;;;;;;;5028867;28;20032;-59
2022/01/08 14:58:11;;;;;;;19.90;7.85;;;;;;;;;;5033460;28;20079;-59
2022/01/08 15:00:39;;;;;;;21.90;7.78;;;;;;;;;;5029342;28;21147;-60
2022/01/08 15:03:05;;;;;;;19.38;7.80;;;;;;;;;;5030825;28;20025;-59
2022/01/08 15:05:33;;;;;;;26.25;8.52;;;;;;;;;;5031307;28;20570;-59
2022/01/08 15:08:04;;;;;;;23.58;8.13;;;;;;;;;;5030380;28;20035;-59
2022/01/08 15:10:30;;;;;;;19.58;8.68;;;;;;;;;;5027753;28;20044;-58
2022/01/08 15:12:56;;;;;;;19.33;8.00;;;;;;;;;;5013577;28;20025;-58
2022/01/08 15:15:23;;;;;;;19.58;8.05;;;;;;;;;;5028005;28;20780;-58
2022/01/08 15:17:53;;;;;;;29.42;9.93;;;;;;;;;;5032449;28;20428;-59
2022/01/08 15:20:23;;;;;;;22.67;9.63;;;;;;;;;;5031065;28;20085;-58
2022/01/08 15:22:51;;;;;;;26.45;9.93;;;;;;;;;;5030681;28;20044;-59
2022/01/08 15:28:59;;;;;;;26.52;11.10;;;;;;;;;;5027020;28;20147;-60
2022/01/08 15:31:26;;;;;;;28.23;9.23;;;;;;;;;;5027070;28;20037;-59
2022/01/08 15:33:53;;;;;;;22.73;9.93;;;;;;;;;;5029604;28;20032;-60
2022/01/08 15:36:19;;;;;;;24.38;9.57;;;;;;;;;;5027941;28;20143;-59
2022/01/08 15:42:22;;;;;;;22.50;8.55;;;;;;;;;;5029591;28;20247;-58
2022/01/08 15:44:49;;;;;;;27.23;8.90;;;;;;;;;;5028422;28;20028;-58
2022/01/08 15:47:14;;;;;;;18.98;8.60;;;;;;;;;;5028887;28;20034;-58
2022/01/08 15:52:59;;;;;;;20.42;7.30;;;;;;;;;;5045492;28;20071;-59
2022/01/08 15:55:27;;;;;;;19.50;7.97;;;;;;;;;;5012954;28;20878;-60
2022/01/08 15:58:33;;;;;;;24.08;7.68;;;;;;;;;;5029710;28;20105;-59
2022/01/08 16:01:01;;;;;;;15.73;7.50;;;;;;;;;;5026323;28;20498;-59
2022/01/08 16:03:26;;;;;;;17.13;7.00;;;;;;;;;;5026087;28;20029;-59
2022/01/08 16:05:52;;;;;;;17.58;7.35;;;;;;;;;;5026808;28;20021;-59
2022/01/08 16:08:21;;;;;;;20.85;7.35;;;;;;;;;;5027444;28;20074;-59
2022/01/08 16:10:46;;;;;;;16.98;6.82;;;;;;;;;;5029026;28;20025;-58
2022/01/08 16:13:15;;;;;;;13.32;6.45;;;;;;;;;;5030029;28;20342;-58
2022/01/08 16:19:16;;;;;;;11.52;5.32;;;;;;;;;;5026203;28;20019;-59